Aeroporto :
LOGIN :

Iscrizione | Disclaimer

   EN    FR    IT 

 










Sommario :    VFR   VFR Marginale   IFR   IFR Intensivo   IFR Molto Intensivo
Visibilità : 
Base nubi : 
>= 8 km
>= 3000ft
5 / 8 km
1000 / 3000 ft
1500m / 5 km
500 / 1000 ft
800 / 1500m
200 / 500 ft
< 800m
< 200 ft
Simboli :   Temporali  Nebbia  Neve Forte  Precipitazioni Forti  Vento > 20 kt
SIGMETs :   Varie  Temporali  Ghiacco  Turbolenza  Onda orograficha  Ceneri Vulcaniche






- Altitudine del aeroporto : 489 ft
- Codice IATA : GDN


EPGD - Gdansk

ULTIMO METAR :
  • 270300Z 21004KT 190V250 9999 OVC016 M00/M01 Q1013

METARs OBSOLETI :
  • 270230Z 21004KT 9999 OVC016 M00/M01 Q1013
  • 270200Z 22004KT 9999 FEW006 OVC017 M00/M01 Q1014
  • 270130Z 23005KT 200V260 9999 SCT006 OVC018 M00/M01 Q1014
  • 270100Z 25005KT 9999 BKN006 M00/M01 Q1014

TAF TAF EPGD
Valido dal 27 a 00 ore il 28 a 00 ore UTC


262330Z 2700/2724 21003KT 9999 BKN018
BECMG 2700/2703 BKN006 BKN010
BECMG 2709/2712 18013KT 4000 BR BKN005
TEMPO 2712/2724 2000 BR BKN002



MetMap, La meteo Aeronautica in un colpo d'occhio ! - Copyright ORBIFLY Dicembre 2007 - Disclaimer

ORBIFLY MET'MAP TEAM :

Programmazione e sviluppo : Alexandra Zaïnal
Concezione : Baudouin d'Aumeries
Aiuto per la programmazione : Marc-Olivier Méhu
Supporto tecnico e logistico : Manuel Goepfert
Aiuto per la traduzione : Arnaldo La Scala

Contatto : metmap@orbifly.com




FONTI E CREDITI :

   NOAA